Time;durP1;ratioP1;P1;durP2;ratioP2;P2;SDS_P1;SDS_P2;PMS_P1;PMS_P2;Temp;Humidity;BMP_temperature;BMP_pressure;BME280_temperature;BME280_humidity;BME280_pressure;Samples;Min_cycle;Max_cycle;Signal;HPM_P1;HPM_P2
2021/01/25 00:01:06;;;;;;;15.52;8.68;;;;;;;1.03;81.74;97827.88;5034236;28;20045;-69
2021/01/25 00:03:34;;;;;;;17.05;9.18;;;;;;;0.93;81.11;97825.31;5034248;28;20056;-69
2021/01/25 00:06:02;;;;;;;17.15;9.60;;;;;;;1.00;81.08;97822.88;5034213;28;20430;-70
2021/01/25 00:08:29;;;;;;;17.55;9.68;;;;;;;1.08;81.21;97825.44;5034216;28;20099;-69
2021/01/25 00:10:58;;;;;;;19.88;9.70;;;;;;;1.23;80.83;97826.34;5034164;28;20052;-69
2021/01/25 00:13:25;;;;;;;15.40;8.57;;;;;;;1.27;80.93;97812.97;5034096;28;20099;-70
2021/01/25 00:15:53;;;;;;;16.90;9.77;;;;;;;1.06;80.70;97822.03;5034154;28;20044;-69
2021/01/25 00:18:22;;;;;;;14.95;8.32;;;;;;;0.91;80.63;97822.78;5031855;28;20408;-70
2021/01/25 00:20:51;;;;;;;15.23;9.02;;;;;;;0.92;81.01;97813.59;5034059;28;20049;-69
2021/01/25 00:23:19;;;;;;;21.15;9.98;;;;;;;1.03;81.28;97815.34;5034031;28;20447;-69
2021/01/25 00:25:48;;;;;;;20.42;9.43;;;;;;;1.12;80.83;97815.41;5033918;28;20038;-69
2021/01/25 00:28:15;;;;;;;16.02;8.02;;;;;;;1.03;81.21;97817.84;5033962;28;20069;-69
2021/01/25 00:30:45;;;;;;;10.38;5.47;;;;;;;0.98;81.57;97809.47;5033841;28;20041;-69
2021/01/25 00:33:12;;;;;;;16.48;7.80;;;;;;;0.99;81.33;97816.16;5033832;28;20037;-69
2021/01/25 00:35:42;;;;;;;13.65;6.78;;;;;;;1.00;81.26;97817.84;5033814;28;20048;-69
2021/01/25 00:38:11;;;;;;;14.77;6.78;;;;;;;1.04;81.29;97811.16;5033779;28;20042;-69
2021/01/25 00:40:38;;;;;;;11.68;6.05;;;;;;;0.97;81.19;97812.81;5033677;28;20384;-69
2021/01/25 00:43:06;;;;;;;14.82;6.90;;;;;;;1.01;81.13;97804.44;5033627;28;20041;-69
2021/01/25 00:45:34;;;;;;;12.57;6.63;;;;;;;0.94;81.11;97811.91;5033592;28;20041;-69
2021/01/25 00:48:01;;;;;;;15.57;6.97;;;;;;;0.95;81.35;97816.13;5033068;28;20052;-69
2021/01/25 00:50:29;;;;;;;13.35;6.97;;;;;;;0.95;81.45;97814.47;5033509;28;20421;-69
2021/01/25 00:52:59;;;;;;;12.88;5.72;;;;;;;1.06;81.17;97822.03;5032425;28;20041;-69
2021/01/25 00:55:29;;;;;;;13.02;6.50;;;;;;;0.97;81.37;97817.81;5032367;28;20045;-69
2021/01/25 00:58:01;;;;;;;11.82;5.75;;;;;;;1.08;81.31;97823.75;5016056;28;20056;-69
2021/01/25 01:00:28;;;;;;;13.27;6.43;;;;;;;0.95;80.88;97816.97;5033593;28;20517;-69
2021/01/25 01:02:56;;;;;;;12.57;5.50;;;;;;;0.91;80.91;97817.75;5033413;28;20049;-69
2021/01/25 01:05:24;;;;;;;15.38;5.50;;;;;;;0.88;80.80;97817.75;5033679;28;20041;-69
2021/01/25 01:07:52;;;;;;;6.90;3.97;;;;;;;0.87;81.02;97821.09;5033346;28;20046;-69
2021/01/25 01:10:21;;;;;;;8.55;4.28;;;;;;;0.81;81.29;97813.53;5033302;28;20162;-69
2021/01/25 01:12:49;;;;;;;8.82;4.45;;;;;;;0.85;81.13;97807.69;5033435;28;20042;-69
2021/01/25 01:15:17;;;;;;;12.02;5.38;;;;;;;0.95;80.99;97814.47;5033346;28;20573;-69
2021/01/25 01:17:44;;;;;;;13.30;4.95;;;;;;;0.93;81.13;97808.59;5033145;28;20503;-69
2021/01/25 01:20:13;;;;;;;10.10;4.97;;;;;;;0.93;81.27;97806.09;5033580;28;20129;-69
2021/01/25 01:22:45;;;;;;;11.20;5.03;;;;;;;0.97;81.32;97810.28;5033344;28;20468;-70
2021/01/25 01:25:14;;;;;;;8.02;4.70;;;;;;;1.01;80.99;97811.97;5033301;28;20395;-69
2021/01/25 01:27:44;;;;;;;8.70;4.38;;;;;;;1.02;81.06;97800.28;5033277;28;20049;-69
2021/01/25 01:30:13;;;;;;;8.55;4.53;;;;;;;1.05;81.21;97796.13;5033165;28;20100;-69
2021/01/25 01:32:40;;;;;;;5.57;3.38;;;;;;;1.16;80.84;97794.50;5033242;28;20033;-69
2021/01/25 01:35:09;;;;;;;5.85;3.05;;;;;;;1.12;80.22;97802.84;5033047;28;20072;-69
2021/01/25 01:37:37;;;;;;;8.45;3.95;;;;;;;1.21;80.06;97802.91;5033182;28;20043;-69
2021/01/25 01:40:07;;;;;;;8.38;4.05;;;;;;;1.38;79.71;97808.00;5033313;28;20048;-69
2021/01/25 01:42:36;;;;;;;6.68;4.15;;;;;;;1.37;79.15;97797.97;5033157;28;20100;-69
2021/01/25 01:45:07;;;;;;;11.07;5.50;;;;;;;1.46;78.69;97808.91;5033034;28;20041;-69
2021/01/25 01:47:35;;;;;;;13.63;6.35;;;;;;;1.53;78.68;97807.25;5033010;28;20065;-69
2021/01/25 01:50:04;;;;;;;16.02;7.55;;;;;;;1.43;79.08;97801.34;5032985;28;20423;-69
2021/01/25 01:52:33;;;;;;;19.45;8.50;;;;;;;1.35;79.31;97796.28;5033036;28;20507;-69
2021/01/25 01:55:01;;;;;;;29.85;12.43;;;;;;;1.28;79.51;97798.75;5015454;28;20045;-69
2021/01/25 01:57:34;;;;;;;29.55;12.85;;;;;;;1.28;80.01;97798.75;5033123;28;20449;-69
2021/01/25 02:00:06;;;;;;;27.45;12.00;;;;;;;1.28;80.80;97799.59;5034428;28;20410;-69
2021/01/25 02:02:37;;;;;;;25.42;12.82;;;;;;;1.39;80.61;97797.16;5036638;28;20107;-69
2021/01/25 02:05:07;;;;;;;23.95;12.20;;;;;;;1.41;80.75;97800.50;5036840;28;20040;-69
2021/01/25 02:07:35;;;;;;;20.35;9.45;;;;;;;1.37;81.18;97797.97;5036576;28;20045;-69
2021/01/25 02:10:05;;;;;;;22.55;11.98;;;;;;;1.31;81.37;97804.63;5036440;28;20407;-69
2021/01/25 02:12:35;;;;;;;23.52;9.98;;;;;;;1.35;81.49;97800.47;5036507;28;20049;-69
2021/01/25 02:15:04;;;;;;;22.38;10.85;;;;;;;1.21;81.33;97802.06;5036386;28;20137;-69
2021/01/25 02:17:33;;;;;;;23.08;10.82;;;;;;;1.14;81.69;97798.69;5036169;28;20057;-69
2021/01/25 02:20:06;;;;;;;19.92;9.23;;;;;;;1.17;82.09;97796.19;5036258;28;20045;-69
2021/01/25 02:22:57;;;;;;;17.17;8.65;;;;;;;1.06;82.13;97777.69;5036323;28;20095;-69
2021/01/25 02:25:36;;;;;;;18.25;8.73;;;;;;;1.11;82.57;97796.13;5036278;28;20045;-69
2021/01/25 02:28:06;;;;;;;16.23;7.65;;;;;;;1.05;81.91;97801.16;5036256;28;20087;-69
2021/01/25 02:30:34;;;;;;;12.25;6.18;;;;;;;1.09;82.43;97802.00;5036409;28;20406;-69
2021/01/25 02:33:02;;;;;;;11.52;5.10;;;;;;;1.22;82.08;97804.56;5036119;28;20104;-69
2021/01/25 02:35:32;;;;;;;9.07;4.10;;;;;;;1.29;82.40;97796.25;5036056;28;20096;-69
2021/01/25 02:38:01;;;;;;;6.55;3.70;;;;;;;1.30;82.22;97797.91;5035958;28;20056;-69
2021/01/25 02:40:30;;;;;;;8.30;3.85;;;;;;;1.30;81.73;97797.91;5035862;28;20395;-69
2021/01/25 02:42:59;;;;;;;6.53;3.50;;;;;;;1.40;81.44;97798.81;5035899;28;20132;-69
2021/01/25 02:45:29;;;;;;;7.78;3.42;;;;;;;1.14;81.67;97766.03;5036186;28;20049;-69
2021/01/25 02:47:58;;;;;;;6.47;3.55;;;;;;;1.44;81.30;97800.50;5035843;28;20037;-69
2021/01/25 02:50:26;;;;;;;6.45;3.88;;;;;;;1.54;80.85;97796.34;5035715;28;20053;-69
2021/01/25 02:52:53;;;;;;;7.38;3.45;;;;;;;1.59;80.96;97802.22;5035727;28;20434;-69
2021/01/25 02:55:21;;;;;;;7.25;3.78;;;;;;;1.62;80.13;97804.78;5035688;28;20052;-69
2021/01/25 02:57:51;;;;;;;6.60;3.10;;;;;;;1.55;80.40;97808.09;5035719;28;20045;-69
2021/01/25 03:00:20;;;;;;;8.38;4.18;;;;;;;1.57;79.71;97806.41;5035508;28;20041;-69
2021/01/25 03:02:49;;;;;;;7.47;4.00;;;;;;;1.55;79.77;97808.09;5035462;28;20415;-69
2021/01/25 03:05:19;;;;;;;8.32;3.97;;;;;;;1.59;80.40;97804.75;5035566;28;20487;-69
2021/01/25 03:07:48;;;;;;;9.05;4.05;;;;;;;1.51;80.07;97806.41;5035395;28;20053;-69
2021/01/25 03:10:16;;;;;;;7.18;3.65;;;;;;;1.49;80.21;97803.06;5035258;28;20056;-69
2021/01/25 03:12:44;;;;;;;10.02;4.20;;;;;;;1.53;79.97;97799.72;5035247;28;20395;-69
2021/01/25 03:15:14;;;;;;;7.60;4.15;;;;;;;1.39;79.56;97778.72;5035272;28;20068;-69
2021/01/25 03:17:42;;;;;;;7.35;3.63;;;;;;;1.47;80.07;97794.63;5035034;28;20065;-69
2021/01/25 03:20:11;;;;;;;6.80;3.55;;;;;;;1.49;80.03;97793.00;5035040;28;20052;-69
2021/01/25 03:22:39;;;;;;;7.57;3.55;;;;;;;1.53;79.80;97794.69;5035176;28;20522;-69
2021/01/25 03:25:08;;;;;;;8.07;3.70;;;;;;;1.66;79.75;97792.22;5035133;28;20041;-69
2021/01/25 03:27:36;;;;;;;7.30;3.10;;;;;;;1.62;79.57;97795.56;5034979;28;20398;-69
2021/01/25 03:30:07;;;;;;;7.45;3.35;;;;;;;1.53;78.98;97789.66;5035397;28;20049;-69
2021/01/25 03:32:41;;;;;;;7.05;3.63;;;;;;;1.60;79.13;97791.34;5034949;28;20073;-70
2021/01/25 03:35:12;;;;;;;7.05;3.88;;;;;;;1.53;78.65;97772.06;5034898;28;20042;-69
2021/01/25 03:37:39;;;;;;;7.63;4.32;;;;;;;1.64;78.75;97788.00;5033729;28;20041;-69
2021/01/25 03:40:08;;;;;;;6.43;3.50;;;;;;;1.48;78.32;97763.66;5034698;28;20038;-69
2021/01/25 03:42:37;;;;;;;7.97;3.78;;;;;;;1.66;78.82;97787.19;5034718;28;20068;-69
2021/01/25 03:45:06;;;;;;;7.13;4.20;;;;;;;1.67;78.71;97793.06;5034695;28;20045;-69
2021/01/25 03:47:48;;;;;;;9.60;4.78;;;;;;;1.67;79.18;97793.06;5034684;28;20044;-69
2021/01/25 03:50:17;;;;;;;8.48;4.53;;;;;;;1.50;79.01;97779.59;4973933;28;20405;-69
2021/01/25 03:52:45;;;;;;;8.95;4.85;;;;;;;1.50;78.88;97784.63;4973994;28;20047;-69
2021/01/25 03:55:13;;;;;;;8.65;5.07;;;;;;;1.52;78.95;97787.97;4973884;28;20133;-69
2021/01/25 03:57:40;;;;;;;8.95;4.85;;;;;;;1.49;79.50;97782.94;4973640;28;20536;-69
2021/01/25 04:00:09;;;;;;;10.73;4.97;;;;;;;1.45;79.41;97788.78;4973526;28;20206;-69
2021/01/25 04:02:37;;;;;;;10.73;5.07;;;;;;;1.49;79.57;97795.50;4973538;28;20057;-69
2021/01/25 04:05:06;;;;;;;9.32;5.20;;;;;;;1.50;79.52;97787.13;4973585;28;20039;-69
2021/01/25 04:07:34;;;;;;;8.52;4.63;;;;;;;1.42;79.26;97784.56;4973501;28;20050;-69
2021/01/25 04:10:05;;;;;;;6.70;4.35;;;;;;;1.47;79.58;97787.09;4973560;28;20043;-69
2021/01/25 04:12:33;;;;;;;;;;;;;;;1.53;79.82;97789.66;4973814;28;20047;-69
2021/01/25 04:15:01;;;;;;;9.82;4.55;;;;;;;0.99;79.32;97700.66;4973370;28;19928;-69
2021/01/25 04:17:30;;;;;;;8.23;4.30;;;;;;;1.63;79.59;97806.47;4973294;28;20090;-69
2021/01/25 04:19:57;;;;;;;8.85;4.65;;;;;;;1.56;79.63;97798.03;4973062;28;20536;-69
2021/01/25 04:22:25;;;;;;;11.43;5.78;;;;;;;1.59;79.57;97807.25;4972558;28;20576;-69
2021/01/25 04:24:55;;;;;;;11.40;6.13;;;;;;;1.64;79.30;97801.44;4957060;28;20039;-69
2021/01/25 04:27:22;;;;;;;7.88;4.55;;;;;;;1.65;79.69;97809.81;5001830;28;20099;-69
2021/01/25 04:29:50;;;;;;;11.65;5.40;;;;;;;1.61;79.62;97803.91;5033836;28;20045;-69
2021/01/25 04:32:19;;;;;;;13.10;6.18;;;;;;;1.67;79.67;97813.16;5033903;28;20037;-69
2021/01/25 04:34:47;;;;;;;9.32;5.07;;;;;;;1.63;78.89;97816.50;5033849;28;20125;-69
2021/01/25 04:37:14;;;;;;;11.57;5.65;;;;;;;1.59;79.71;97818.16;5033729;28;20037;-69
2021/01/25 04:39:42;;;;;;;10.13;5.80;;;;;;;1.60;79.58;97816.50;5033723;28;20095;-69
2021/01/25 04:42:11;;;;;;;16.42;5.75;;;;;;;1.55;79.28;97813.97;5033686;28;20511;-69
2021/01/25 04:44:39;;;;;;;12.45;4.78;;;;;;;1.50;79.46;97819.78;5033718;28;20053;-69
2021/01/25 04:47:09;;;;;;;13.77;6.13;;;;;;;1.51;79.07;97817.31;5033679;28;20042;-69
2021/01/25 04:49:38;;;;;;;11.35;6.68;;;;;;;1.56;80.07;97814.81;5033615;28;20503;-69
2021/01/25 04:52:06;;;;;;;12.50;6.07;;;;;;;1.54;80.05;97822.31;5033641;28;20041;-69
2021/01/25 04:54:34;;;;;;;12.55;6.32;;;;;;;1.51;79.95;97811.44;5033486;28;20037;-69
2021/01/25 04:57:02;;;;;;;11.50;6.38;;;;;;;1.44;79.26;97810.53;5033544;28;20538;-69
2021/01/25 04:59:31;;;;;;;14.60;6.20;;;;;;;1.46;79.50;97813.09;5033539;28;20042;-69
2021/01/25 05:01:59;;;;;;;10.68;5.90;;;;;;;1.42;79.99;97811.41;5033411;28;20462;-69
2021/01/25 05:04:31;;;;;;;10.70;5.78;;;;;;;1.27;79.69;97810.47;5033542;28;20045;-69
2021/01/25 05:06:58;;;;;;;10.27;5.50;;;;;;;1.12;79.84;97802.84;5033697;28;20041;-69
2021/01/25 05:09:27;;;;;;;10.40;5.63;;;;;;;1.04;80.36;97801.97;5033471;28;20045;-69
2021/01/25 05:11:58;;;;;;;10.77;5.35;;;;;;;1.06;80.64;97802.81;5033454;28;20046;-69
2021/01/25 05:14:25;;;;;;;9.38;5.45;;;;;;;0.99;80.83;97795.22;5033364;28;20051;-69
2021/01/25 05:16:54;;;;;;;11.07;5.80;;;;;;;1.03;80.67;97805.28;5033080;28;20510;-70
2021/01/25 05:19:25;;;;;;;9.83;5.80;;;;;;;1.06;81.18;97800.28;5033401;28;20058;-69
2021/01/25 05:21:53;;;;;;;12.75;5.50;;;;;;;1.11;81.25;97797.81;5033305;28;20045;-69
2021/01/25 05:24:20;;;;;;;12.38;5.97;;;;;;;1.15;81.04;97802.03;5033323;28;20034;-70
2021/01/25 05:26:51;;;;;;;10.70;5.68;;;;;;;1.02;81.02;97796.09;5033224;28;20041;-69
2021/01/25 05:29:23;;;;;;;10.43;5.28;;;;;;;0.93;81.00;97800.22;5033300;28;20042;-69
2021/01/25 05:31:51;;;;;;;12.00;5.63;;;;;;;0.71;80.95;97764.09;5033243;28;20045;-69
2021/01/25 05:34:20;;;;;;;10.10;4.72;;;;;;;0.93;81.38;97801.06;5035535;28;20046;-69
2021/01/25 05:36:49;;;;;;;10.93;5.15;;;;;;;0.84;81.54;97795.97;5037091;28;20495;-69
2021/01/25 05:39:17;;;;;;;8.73;4.85;;;;;;;0.88;81.14;97797.69;5037017;28;20129;-69
2021/01/25 05:41:52;;;;;;;8.98;5.47;;;;;;;0.74;81.46;97805.94;5019244;28;20033;-69
2021/01/25 05:44:22;;;;;;;11.52;5.43;;;;;;;0.83;81.34;97804.34;5037035;28;20407;-68
2021/01/25 05:46:49;;;;;;;9.95;5.28;;;;;;;0.83;81.49;97806.84;5037211;28;20072;-69
2021/01/25 05:49:26;;;;;;;10.13;4.82;;;;;;;0.70;81.33;97810.06;5036876;28;20080;-69
2021/01/25 05:51:56;;;;;;;12.50;5.40;;;;;;;0.74;80.90;97804.28;5036895;28;20487;-69
2021/01/25 05:54:25;;;;;;;7.07;4.13;;;;;;;0.74;81.32;97804.28;5036654;28;20044;-69
2021/01/25 05:56:53;;;;;;;9.35;4.07;;;;;;;0.72;80.98;97805.09;5036749;28;20041;-69
2021/01/25 05:59:21;;;;;;;6.82;4.00;;;;;;;0.71;81.28;97813.44;5036722;28;20045;-69
2021/01/25 06:01:49;;;;;;;10.55;4.57;;;;;;;0.76;81.41;97807.63;5036488;28;20084;-69
2021/01/25 06:04:21;;;;;;;7.95;4.03;;;;;;;0.70;80.94;97809.25;5036753;28;20049;-69
2021/01/25 06:07:04;;;;;;;6.82;3.85;;;;;;;0.64;80.96;97817.56;5036652;28;20041;-69
2021/01/25 06:09:41;;;;;;;8.13;4.13;;;;;;;0.52;80.85;97808.28;5036475;28;20059;-69
2021/01/25 06:12:10;;;;;;;6.93;3.75;;;;;;;0.58;81.28;97815.00;5036510;28;20456;-69
2021/01/25 06:14:44;;;;;;;9.00;4.90;;;;;;;0.65;81.25;97814.22;5036381;28;20045;-69
2021/01/25 06:17:14;;;;;;;6.65;3.97;;;;;;;0.61;81.28;97813.38;5036291;28;20057;-69
2021/01/25 06:19:43;;;;;;;7.47;4.28;;;;;;;0.63;81.19;97825.91;5036361;28;20053;-69
2021/01/25 06:22:15;;;;;;;8.85;3.95;;;;;;;0.63;81.08;97825.91;5036223;28;20491;-69
2021/01/25 06:24:44;;;;;;;7.78;4.15;;;;;;;0.67;81.69;97837.69;5036189;28;20049;-69
2021/01/25 06:27:14;;;;;;;7.78;4.18;;;;;;;0.72;81.43;97841.03;5036189;28;20060;-69
2021/01/25 06:29:44;;;;;;;8.63;4.55;;;;;;;0.14;81.24;97753.59;5036127;28;20388;-69
2021/01/25 06:32:13;;;;;;;7.68;4.32;;;;;;;0.74;81.41;97844.44;5036024;28;20038;-69
2021/01/25 06:34:41;;;;;;;8.20;4.63;;;;;;;0.87;81.09;97846.19;5036076;28;20049;-69
2021/01/25 06:37:10;;;;;;;16.15;7.43;;;;;;;1.01;81.08;97852.16;5035974;28;20049;-69
2021/01/25 06:39:45;;;;;;;19.50;12.40;;;;;;;1.02;80.53;97856.34;5036022;28;20046;-69
2021/01/25 06:42:16;;;;;;;11.95;6.72;;;;;;;0.76;80.93;97837.75;5035959;28;20042;-69
2021/01/25 06:44:47;;;;;;;10.63;6.13;;;;;;;1.01;80.24;97864.72;5035764;28;20049;-68
2021/01/25 06:47:16;;;;;;;16.15;7.70;;;;;;;0.93;80.25;97853.78;5035485;28;20037;-69
2021/01/25 06:49:47;;;;;;;15.60;8.10;;;;;;;0.98;79.98;97854.66;5036063;28;20064;-69
2021/01/25 06:52:15;;;;;;;13.18;7.03;;;;;;;1.07;79.39;97869.78;5035735;28;20124;-69
2021/01/25 06:54:45;;;;;;;12.57;6.03;;;;;;;1.12;79.47;97873.19;5035623;28;20063;-69
2021/01/25 06:57:20;;;;;;;11.25;5.90;;;;;;;1.25;78.90;97874.09;5035669;28;20054;-69
2021/01/25 06:59:49;;;;;;;10.82;5.63;;;;;;;1.34;78.53;97877.50;5035500;28;20133;-69
2021/01/25 07:02:19;;;;;;;10.98;5.88;;;;;;;1.17;78.60;97860.66;5035445;28;20120;-69
2021/01/25 07:04:50;;;;;;;10.57;5.50;;;;;;;1.08;78.72;97833.78;5035462;28;20056;-69
2021/01/25 07:07:21;;;;;;;8.65;5.28;;;;;;;1.37;79.38;97888.41;5035480;28;20053;-68
2021/01/25 07:09:53;;;;;;;9.90;5.93;;;;;;;1.39;78.96;97887.59;5035347;28;20059;-69
2021/01/25 07:12:23;;;;;;;9.55;5.63;;;;;;;1.40;79.40;97891.78;5035671;28;20549;-69
2021/01/25 07:14:51;;;;;;;9.95;5.63;;;;;;;1.46;79.34;97898.53;5035315;28;20071;-69
2021/01/25 07:17:19;;;;;;;11.07;5.35;;;;;;;1.55;79.03;97901.09;5034938;28;20050;-69
2021/01/25 07:19:47;;;;;;;10.07;5.78;;;;;;;1.56;79.72;97900.28;5035118;28;20045;-69
2021/01/25 07:22:17;;;;;;;11.13;5.90;;;;;;;1.65;79.30;97897.78;5035005;28;20587;-69
2021/01/25 07:24:44;;;;;;;;;;;;;;;1.72;79.01;97900.34;5035457;28;20049;-69
2021/01/25 07:27:14;;;;;;;10.45;5.65;;;;;;;1.76;79.32;97898.69;5035028;28;19954;-69
2021/01/25 07:29:45;;;;;;;11.70;5.20;;;;;;;1.87;78.75;97912.16;5035312;28;20042;-69
2021/01/25 07:32:13;;;;;;;11.20;5.55;;;;;;;1.95;79.08;97905.47;5034970;28;20065;-69
2021/01/25 07:34:44;;;;;;;15.20;5.40;;;;;;;1.97;78.71;97898.78;5034858;28;20092;-69
2021/01/25 07:37:12;;;;;;;10.48;5.10;;;;;;;2.12;78.08;97913.94;5034896;28;20499;-69
2021/01/25 07:39:43;;;;;;;9.10;5.00;;;;;;;2.17;78.45;97922.34;5034794;28;20034;-70
2021/01/25 07:42:12;;;;;;;12.68;5.25;;;;;;;2.17;77.40;97919.00;5034713;28;20124;-69
2021/01/25 07:44:50;;;;;;;10.98;5.30;;;;;;;2.26;77.96;97922.38;5034762;28;20060;-69
2021/01/25 07:47:21;;;;;;;9.60;5.22;;;;;;;2.27;77.82;97918.19;5034990;28;20159;-69
2021/01/25 07:49:49;;;;;;;12.73;5.38;;;;;;;2.29;77.06;97929.09;5034712;28;20490;-69
2021/01/25 07:52:17;;;;;;;12.10;5.78;;;;;;;2.30;77.31;97924.09;5034564;28;20048;-69
2021/01/25 07:54:47;;;;;;;12.20;5.72;;;;;;;2.33;76.91;97924.06;5034467;28;20455;-69
2021/01/25 07:57:26;;;;;;;10.52;5.70;;;;;;;2.33;76.50;97924.06;5034534;28;20057;-69
2021/01/25 08:00:01;;;;;;;9.85;5.50;;;;;;;2.33;76.78;97926.59;5022696;28;20053;-69
2021/01/25 08:02:38;;;;;;;10.82;6.35;;;;;;;2.37;76.80;97928.31;4995340;28;20050;-69
2021/01/25 08:05:11;;;;;;;;;;;;;;;2.36;77.01;97934.16;5012725;28;20057;-69
2021/01/25 08:07:42;;;;;;;10.63;5.70;;;;;;;2.36;77.34;97934.16;5014348;28;19929;-70
2021/01/25 08:10:13;;;;;;;9.90;5.40;;;;;;;2.37;76.22;97928.31;5013746;28;20073;-69
2021/01/25 08:12:44;;;;;;;9.98;5.63;;;;;;;2.38;77.12;97937.50;5014332;28;20499;-69
2021/01/25 08:15:22;;;;;;;9.65;5.72;;;;;;;2.38;76.71;97937.50;5014433;28;20057;-68
2021/01/25 08:17:55;;;;;;;10.80;5.93;;;;;;;2.33;76.61;97934.13;5014018;28;20558;-69
2021/01/25 08:20:26;;;;;;;10.52;5.97;;;;;;;2.38;77.32;97942.56;5014486;28;20056;-69
2021/01/25 08:22:57;;;;;;;10.63;5.40;;;;;;;2.35;76.29;97944.22;5013976;28;20065;-69
2021/01/25 08:25:27;;;;;;;14.90;6.47;;;;;;;2.38;76.94;97951.78;5014270;28;20069;-69
2021/01/25 08:28:00;;;;;;;11.38;6.22;;;;;;;2.18;76.89;97923.19;5014275;28;20045;-69
2021/01/25 08:30:35;;;;;;;10.90;6.22;;;;;;;2.38;76.34;97952.63;5014471;28;20050;-69
2021/01/25 08:33:04;;;;;;;12.55;6.07;;;;;;;2.36;76.50;97959.31;5014079;28;20054;-69
2021/01/25 08:35:35;;;;;;;15.65;7.10;;;;;;;2.38;77.35;97961.84;5014054;28;20558;-69
2021/01/25 08:38:08;;;;;;;10.75;6.07;;;;;;;2.39;76.77;97961.88;5014064;28;20416;-69
2021/01/25 08:40:39;;;;;;;12.63;7.00;;;;;;;2.38;77.41;97962.69;5013961;28;20133;-70
2021/01/25 08:43:19;;;;;;;11.98;6.93;;;;;;;2.40;76.90;97971.06;5013998;28;20062;-69
2021/01/25 08:45:48;;;;;;;10.18;6.07;;;;;;;2.39;77.37;97964.38;5013995;28;20056;-69
2021/01/25 08:48:26;;;;;;;11.98;6.88;;;;;;;2.42;77.30;97974.47;5014472;28;20107;-69
2021/01/25 08:50:54;;;;;;;14.70;6.45;;;;;;;2.42;77.46;97969.44;5013894;28;20080;-69
2021/01/25 08:53:27;;;;;;;13.23;7.28;;;;;;;2.41;76.99;97977.81;5014125;28;20041;-69
2021/01/25 08:55:57;;;;;;;11.70;6.47;;;;;;;2.42;77.90;97974.47;5013884;28;20096;-69
2021/01/25 08:58:27;;;;;;;11.52;6.57;;;;;;;2.44;77.14;97977.81;5013872;28;20104;-69
2021/01/25 09:00:56;;;;;;;;;;;;;;;2.46;77.39;97973.63;5014394;28;20125;-69
2021/01/25 09:03:24;;;;;;;12.68;6.75;;;;;;;2.37;77.72;97961.03;5013764;28;20418;-69
2021/01/25 09:06:08;;;;;;;10.80;6.18;;;;;;;2.50;77.22;97977.84;5013693;28;20038;-68
2021/01/25 09:08:36;;;;;;;10.98;6.18;;;;;;;2.53;78.09;97987.91;4994186;28;20046;-69
2021/01/25 09:11:04;;;;;;;11.30;6.70;;;;;;;2.52;77.00;97996.28;4998773;28;20496;-69
2021/01/25 09:13:34;;;;;;;13.88;8.65;;;;;;;2.56;77.31;97987.94;4998559;28;20054;-69
2021/01/25 09:16:02;;;;;;;13.38;7.68;;;;;;;2.59;77.56;97992.97;4998537;28;20057;-69
2021/01/25 09:18:30;;;;;;;10.73;6.88;;;;;;;2.62;77.39;97998.00;4998350;28;20058;-69
2021/01/25 09:20:58;;;;;;;11.25;6.70;;;;;;;2.63;77.11;97999.72;4998403;28;20591;-69
2021/01/25 09:23:26;;;;;;;12.98;6.93;;;;;;;2.66;77.28;98004.72;4998413;28;20125;-69
2021/01/25 09:25:54;;;;;;;14.38;7.20;;;;;;;2.68;77.37;98022.38;4998280;28;20096;-69
2021/01/25 09:28:21;;;;;;;11.68;6.45;;;;;;;2.63;77.15;98007.25;4998337;28;20122;-68
2021/01/25 09:31:04;;;;;;;14.50;7.65;;;;;;;2.69;77.31;98019.84;4998381;28;20057;-68
2021/01/25 09:33:32;;;;;;;12.43;6.55;;;;;;;2.72;77.19;98024.06;4940394;29;20055;-69
2021/01/25 09:36:00;;;;;;;14.93;9.23;;;;;;;2.60;77.29;98003.88;4940505;29;20040;-69
2021/01/25 09:38:28;;;;;;;16.55;8.73;;;;;;;2.81;77.85;98028.31;4940114;29;20043;-68
2021/01/25 09:40:56;;;;;;;19.67;11.95;;;;;;;2.85;77.33;98025.81;4940214;29;20102;-69
2021/01/25 09:43:25;;;;;;;13.40;8.70;;;;;;;2.88;76.79;98023.25;4940372;29;20077;-69
2021/01/25 09:45:53;;;;;;;14.95;8.73;;;;;;;2.95;76.65;98017.41;4940248;29;20054;-69
2021/01/25 09:48:21;;;;;;;15.20;9.38;;;;;;;3.00;76.55;98019.97;4940161;29;20055;-69
2021/01/25 09:50:51;;;;;;;13.45;8.25;;;;;;;3.09;76.36;98015.78;4940268;29;20063;-69
2021/01/25 09:53:18;;;;;;;15.85;10.73;;;;;;;3.22;76.39;98021.66;4940519;29;20048;-69
2021/01/25 09:55:46;;;;;;;18.35;11.27;;;;;;;3.36;75.59;98015.78;4940232;29;20044;-69
2021/01/25 09:58:14;;;;;;;15.98;8.52;;;;;;;3.56;75.75;98010.75;4938330;29;20497;-69
2021/01/25 10:00:41;;;;;;;13.13;7.40;;;;;;;3.74;75.81;98003.19;4939471;29;20043;-68
2021/01/25 10:03:10;;;;;;;15.10;8.40;;;;;;;3.88;74.94;98006.56;4939996;29;20070;-69
2021/01/25 10:05:38;;;;;;;12.20;6.88;;;;;;;3.98;74.65;98008.19;4940059;29;20576;-68
2021/01/25 10:08:06;;;;;;;20.17;12.52;;;;;;;4.18;74.81;98019.94;4938997;29;20056;-68
2021/01/25 10:10:34;;;;;;;14.75;8.27;;;;;;;4.29;73.90;98018.22;4972772;28;20141;-69
2021/01/25 10:13:02;;;;;;;11.98;6.82;;;;;;;4.29;73.99;98018.22;5019701;28;20038;-68
2021/01/25 10:15:29;;;;;;;39.63;18.90;;;;;;;4.40;72.92;98021.56;5019516;28;20146;-68
2021/01/25 10:17:57;;;;;;;71.03;30.98;;;;;;;4.41;72.19;98021.56;5015625;28;20045;-68
2021/01/25 10:20:25;;;;;;;104.82;37.30;;;;;;;4.39;71.97;98022.41;5004540;28;20066;-69
2021/01/25 10:22:53;;;;;;;49.88;19.83;;;;;;;4.35;72.76;98025.78;4996614;28;20097;-68
2021/01/25 10:25:21;;;;;;;33.30;15.82;;;;;;;4.39;72.47;98024.94;4996727;28;20042;-69
2021/01/25 10:27:49;;;;;;;52.93;23.67;;;;;;;4.49;72.48;98027.41;4996965;28;20121;-68
2021/01/25 10:30:19;;;;;;;33.47;19.40;;;;;;;4.50;71.78;98026.59;4996764;28;20385;-69
2021/01/25 10:32:47;;;;;;;18.02;10.93;;;;;;;4.64;71.42;98026.53;4996709;28;20097;-68
2021/01/25 10:35:15;;;;;;;14.77;9.43;;;;;;;4.54;70.97;98008.03;4996631;28;20039;-69
2021/01/25 10:37:43;;;;;;;16.05;10.35;;;;;;;4.79;70.89;98025.63;4996586;28;20054;-68
2021/01/25 10:40:11;;;;;;;17.80;9.52;;;;;;;4.82;70.42;98011.28;4996580;28;20130;-68
2021/01/25 10:42:41;;;;;;;;;;;;;;;4.91;69.63;98023.88;5000710;28;20046;-68
2021/01/25 10:45:09;;;;;;;10.70;6.53;;;;;;;4.96;68.85;98029.75;5006314;28;19921;-69
2021/01/25 10:47:37;;;;;;;19.35;10.85;;;;;;;5.15;68.92;98021.22;5004724;28;20057;-69
2021/01/25 10:50:10;;;;;;;10.05;6.38;;;;;;;5.48;68.59;98015.06;5005555;28;20047;-68
2021/01/25 10:52:45;;;;;;;9.35;5.47;;;;;;;5.76;67.35;98011.47;5004389;28;20054;-68
2021/01/25 10:55:14;;;;;;;49.75;22.95;;;;;;;6.06;66.52;98007.84;5006047;28;20038;-68
2021/01/25 10:57:44;;;;;;;34.33;13.77;;;;;;;6.22;65.50;98009.38;4998761;28;20050;-68
2021/01/25 11:00:14;;;;;;;13.30;7.70;;;;;;;6.60;64.57;98009.78;5002084;28;20085;-68
2021/01/25 11:02:42;;;;;;;10.02;6.22;;;;;;;6.66;64.08;98014.78;5011229;28;20144;-67
2021/01/25 11:05:11;;;;;;;7.55;3.20;;;;;;;6.54;62.61;98006.47;4976600;28;20042;-67
2021/01/25 11:07:39;;;;;;;7.38;3.40;;;;;;;6.56;60.12;97992.94;5001267;28;20050;-67
2021/01/25 11:10:10;;;;;;;5.00;2.63;;;;;;;6.40;60.45;98001.59;5015766;28;20049;-67
2021/01/25 11:12:41;;;;;;;10.43;5.40;;;;;;;6.05;60.43;98001.09;5002820;28;20057;-67
2021/01/25 11:15:10;;;;;;;7.82;3.90;;;;;;;5.78;61.07;98008.94;4995975;28;20050;-67
2021/01/25 11:17:38;;;;;;;14.90;6.25;;;;;;;6.08;60.06;97985.88;5014598;28;20050;-67
2021/01/25 11:20:09;;;;;;;8.40;4.03;;;;;;;6.47;60.02;98010.78;5013282;28;20062;-67
2021/01/25 11:22:37;;;;;;;7.83;3.43;;;;;;;6.04;59.22;98012.09;4995738;28;20117;-67
2021/01/25 11:25:05;;;;;;;5.57;2.63;;;;;;;5.76;59.52;98020.78;4996056;28;20075;-67
2021/01/25 11:27:34;;;;;;;8.17;3.67;;;;;;;5.75;60.55;98022.47;4995688;28;20058;-68
2021/01/25 11:30:03;;;;;;;6.15;3.20;;;;;;;5.76;60.46;98023.31;4995684;28;20096;-68
2021/01/25 11:32:32;;;;;;;6.47;2.72;;;;;;;5.45;59.46;97999.09;4995338;28;20065;-67
2021/01/25 11:35:00;;;;;;;6.55;3.05;;;;;;;5.62;60.68;98023.41;4995671;28;20054;-67
2021/01/25 11:37:29;;;;;;;6.10;3.00;;;;;;;5.52;61.25;98026.84;4995163;28;20125;-67
2021/01/25 11:39:57;;;;;;;6.70;3.42;;;;;;;5.52;61.39;98028.56;4995507;28;20046;-68
2021/01/25 11:42:24;;;;;;;6.47;3.50;;;;;;;5.42;61.64;98035.38;4995487;28;20052;-67
2021/01/25 11:44:53;;;;;;;7.43;3.42;;;;;;;5.25;61.72;98011.88;4995376;28;20093;-67
2021/01/25 11:47:21;;;;;;;11.77;6.00;;;;;;;5.40;62.36;98031.97;4995443;28;20049;-67